createdAt,value
2023-05-21T00:00:18.637Z,98650.09
2023-05-21T00:05:22.160Z,98652.84
2023-05-21T00:10:27.807Z,98649.16
2023-05-21T00:15:31.613Z,98653.09
2023-05-21T00:20:35.686Z,98650.00
2023-05-21T00:25:41.011Z,98642.81
2023-05-21T00:30:44.654Z,98640.91
2023-05-21T00:35:48.130Z,98639.13
2023-05-21T00:40:53.040Z,98644.44
2023-05-21T00:45:58.439Z,98644.63
2023-05-21T00:51:02.044Z,98647.13
2023-05-21T00:56:08.430Z,98634.19
2023-05-21T01:01:16.239Z,98630.19
2023-05-21T01:06:20.815Z,98622.50
2023-05-21T01:11:38.228Z,98626.41
2023-05-21T01:16:43.998Z,98626.69
2023-05-21T01:21:50.974Z,98624.91
2023-05-21T01:26:56.150Z,98608.75
2023-05-21T01:32:06.144Z,98614.00
2023-05-21T01:37:18.149Z,98604.88
2023-05-21T01:42:25.181Z,98600.84
2023-05-21T01:47:31.460Z,98599.81
2023-05-21T01:52:35.126Z,98588.69
2023-05-21T01:57:40.138Z,98597.13
2023-05-21T02:02:43.816Z,98587.13
2023-05-21T02:07:49.900Z,98571.72
2023-05-21T02:12:54.819Z,98570.25
2023-05-21T02:17:58.672Z,98577.75
2023-05-21T02:23:02.306Z,98586.72
2023-05-21T02:28:07.453Z,98578.69
2023-05-21T02:33:14.449Z,98570.22
2023-05-21T02:38:19.567Z,98576.19
2023-05-21T02:43:24.796Z,98571.75
2023-05-21T02:48:28.616Z,98570.16
2023-05-21T02:53:32.306Z,98579.56
2023-05-21T02:58:37.189Z,98589.34
2023-05-21T03:03:40.875Z,98583.75
2023-05-21T03:08:44.711Z,98578.31
2023-05-21T03:13:49.998Z,98584.59
2023-05-21T03:18:53.823Z,98579.72
2023-05-21T03:23:58.840Z,98582.53
2023-05-21T03:29:03.814Z,98585.03
2023-05-21T03:34:08.720Z,98577.53
2023-05-21T03:39:12.621Z,98574.25
2023-05-21T03:44:18.183Z,98577.97
2023-05-21T03:49:28.267Z,98571.91
2023-05-21T03:54:33.560Z,98572.22
2023-05-21T03:59:42.697Z,98573.97
2023-05-21T04:04:46.883Z,98581.13
2023-05-21T04:09:50.801Z,98567.56
2023-05-21T04:14:56.995Z,98560.22
2023-05-21T04:20:01.432Z,98563.13
2023-05-21T04:25:08.266Z,98564.28
2023-05-21T04:30:16.033Z,98562.44
2023-05-21T04:35:21.908Z,98568.38
2023-05-21T04:40:25.827Z,98572.66
2023-05-21T04:45:31.469Z,98572.38
2023-05-21T04:50:36.026Z,98576.25
2023-05-21T04:55:40.297Z,98587.97
2023-05-21T05:00:47.178Z,98581.44
2023-05-21T05:05:52.883Z,98578.59
2023-05-21T05:10:57.074Z,98581.19
2023-05-21T05:16:02.437Z,98579.00
2023-05-21T05:21:06.456Z,98580.69
2023-05-21T05:26:10.009Z,98584.44
2023-05-21T05:31:15.115Z,98584.53
2023-05-21T05:36:21.280Z,98583.97
2023-05-21T05:41:24.772Z,98583.88
2023-05-21T05:46:30.929Z,98592.13
2023-05-21T05:51:34.585Z,98575.75
2023-05-21T05:56:38.200Z,98577.22
2023-05-21T06:01:44.021Z,98579.91
2023-05-21T06:06:48.402Z,98594.94
2023-05-21T06:11:52.190Z,98584.06
2023-05-21T06:16:57.179Z,98570.53
2023-05-21T06:22:04.814Z,98562.88
2023-05-21T06:27:08.982Z,98550.81
2023-05-21T06:32:14.893Z,98558.59
2023-05-21T06:37:22.789Z,98560.41
2023-05-21T06:42:28.750Z,98548.63
2023-05-21T06:47:53.840Z,98550.22
2023-05-21T06:52:57.480Z,98542.13
2023-05-21T06:58:01.275Z,98544.66
2023-05-21T07:03:08.887Z,98551.81
2023-05-21T07:08:13.219Z,98540.97
2023-05-21T07:13:17.127Z,98536.00
2023-05-21T07:18:23.112Z,98540.94
2023-05-21T07:23:27.041Z,98537.16
2023-05-21T07:28:30.877Z,98550.38
2023-05-21T07:33:36.447Z,98537.63
2023-05-21T07:38:40.610Z,98525.91
2023-05-21T07:43:45.991Z,98538.69
2023-05-21T07:48:53.121Z,98535.00
2023-05-21T07:53:57.207Z,98539.81
2023-05-21T07:59:08.041Z,98526.88
2023-05-21T08:04:14.941Z,98540.75
2023-05-21T08:09:19.478Z,98545.63
2023-05-21T08:14:23.652Z,98557.63
2023-05-21T08:19:29.424Z,98557.22
2023-05-21T08:24:33.391Z,98557.06
2023-05-21T08:29:37.109Z,98564.19
2023-05-21T08:34:43.854Z,98560.41
2023-05-21T08:40:02.799Z,98567.69
2023-05-21T08:45:14.989Z,98562.72
2023-05-21T08:50:20.634Z,98573.94
2023-05-21T08:55:26.944Z,98571.63
2023-05-21T09:00:31.633Z,98572.28
2023-05-21T09:05:41.776Z,98564.56
2023-05-21T09:10:51.038Z,98562.56
2023-05-21T09:15:56.621Z,98579.69
2023-05-21T09:21:25.089Z,98582.16
2023-05-21T09:26:30.143Z,98592.22
2023-05-21T09:31:38.222Z,98592.66
2023-05-21T09:36:44.092Z,98589.28
2023-05-21T09:41:48.453Z,98592.56
2023-05-21T09:46:52.471Z,98588.38
2023-05-21T09:52:00.408Z,98585.78
2023-05-21T09:57:03.908Z,98587.56
2023-05-21T10:02:19.335Z,98587.72
2023-05-21T10:07:27.320Z,98588.84
2023-05-21T10:12:33.211Z,98598.81
2023-05-21T10:17:37.814Z,98599.78
2023-05-21T10:22:43.429Z,98588.19
2023-05-21T10:27:48.265Z,98595.56
2023-05-21T10:32:52.461Z,98596.56
2023-05-21T10:37:58.818Z,98598.41
2023-05-21T10:43:28.360Z,98601.94
2023-05-21T10:48:49.293Z,98593.88
2023-05-21T10:54:28.893Z,98602.78
2023-05-21T10:59:41.488Z,98599.06
2023-05-21T11:04:49.103Z,98601.53
2023-05-21T11:09:56.198Z,98603.06
2023-05-21T11:15:00.108Z,98604.59
2023-05-21T11:20:07.394Z,98606.69
2023-05-21T11:25:12.685Z,98602.03
2023-05-21T11:30:18.057Z,98601.19
2023-05-21T11:35:23.946Z,98589.97
2023-05-21T11:40:30.933Z,98600.59
2023-05-21T11:45:34.959Z,98582.94
2023-05-21T11:50:39.349Z,98591.84
2023-05-21T11:55:47.474Z,98581.69
2023-05-21T12:00:53.002Z,98568.59
2023-05-21T12:05:58.177Z,98566.00
2023-05-21T12:11:03.544Z,98559.25
2023-05-21T12:16:08.350Z,98558.31
2023-05-21T12:21:12.765Z,98550.81
2023-05-21T12:26:18.017Z,98546.25
2023-05-21T12:31:21.981Z,98539.34
2023-05-21T12:36:28.741Z,98539.84
2023-05-21T12:41:33.716Z,98550.56
2023-05-21T12:46:37.775Z,98547.88
2023-05-21T12:58:21.511Z,98545.88
2023-05-21T13:03:36.673Z,98549.38
2023-05-21T13:14:32.923Z,98534.91
2023-05-21T13:32:28.877Z,98536.09
2023-05-21T13:37:38.360Z,98544.22
2023-05-21T13:42:45.619Z,98537.22
2023-05-21T13:47:53.140Z,98530.22
2023-05-21T13:52:59.720Z,98537.66
2023-05-21T13:58:06.496Z,98549.25
2023-05-21T14:03:13.167Z,98535.81
2023-05-21T14:08:20.225Z,98544.19
2023-05-21T14:13:24.205Z,98529.53
2023-05-21T14:18:29.904Z,98530.59
2023-05-21T14:23:33.889Z,98521.22
2023-05-21T14:28:37.953Z,98523.97
2023-05-21T14:33:43.950Z,98519.78
2023-05-21T14:38:48.363Z,98522.00
2023-05-21T14:43:53.026Z,98510.22
2023-05-21T14:49:01.241Z,98500.50
2023-05-21T14:54:15.793Z,98502.38
2023-05-21T14:59:47.030Z,98506.91
2023-05-21T15:05:37.712Z,98498.91
2023-05-21T15:10:58.228Z,98520.75
2023-05-21T15:16:16.572Z,98506.75
2023-05-21T15:22:06.121Z,98508.41
2023-05-21T15:27:30.354Z,98510.03
2023-05-21T15:33:27.605Z,98507.47
2023-05-21T15:38:50.413Z,98506.53
2023-05-21T15:44:16.140Z,98508.91
2023-05-21T15:49:23.986Z,98507.97
2023-05-21T15:54:34.940Z,98503.88
2023-05-21T15:59:41.462Z,98513.41
2023-05-21T16:04:46.080Z,98513.78
2023-05-21T16:09:54.984Z,98510.28
2023-05-21T16:15:22.391Z,98506.22
2023-05-21T16:20:37.547Z,98507.78
2023-05-21T16:32:59.917Z,98505.66
2023-05-21T16:39:35.847Z,98507.59
2023-05-21T16:51:17.521Z,98510.38
2023-05-21T16:56:21.539Z,98516.00
2023-05-21T17:01:25.144Z,98518.28
2023-05-21T17:06:30.476Z,98527.31
2023-05-21T17:11:35.068Z,98525.41
2023-05-21T17:16:42.821Z,98534.66
2023-05-21T17:21:47.805Z,98540.06
2023-05-21T17:26:51.305Z,98531.78
2023-05-21T17:31:54.885Z,98541.84
2023-05-21T17:37:00.535Z,98537.03
2023-05-21T17:42:04.156Z,98537.91
2023-05-21T17:47:08.961Z,98545.66
2023-05-21T17:52:14.270Z,98556.47
2023-05-21T17:57:19.989Z,98548.69
2023-05-21T18:02:23.645Z,98555.38
2023-05-21T18:07:28.542Z,98560.66
2023-05-21T18:12:32.015Z,98562.09
2023-05-21T18:17:35.655Z,98569.88
2023-05-21T18:22:40.574Z,98565.09
2023-05-21T18:27:44.002Z,98569.91
2023-05-21T18:32:47.800Z,98573.13
2023-05-21T18:37:53.570Z,98574.41
2023-05-21T18:42:57.007Z,98584.94
2023-05-21T18:48:00.868Z,98571.38
2023-05-21T18:53:06.849Z,98581.31
2023-05-21T18:58:10.850Z,98581.78
2023-05-21T19:03:14.316Z,98591.53
2023-05-21T19:08:19.204Z,98582.97
2023-05-21T19:13:22.648Z,98588.25
2023-05-21T19:18:30.487Z,98589.22
2023-05-21T19:23:48.776Z,98587.44
2023-05-21T19:28:56.698Z,98591.84
2023-05-21T19:34:00.212Z,98589.34
2023-05-21T19:39:05.836Z,98590.22
2023-05-21T19:44:09.325Z,98591.88
2023-05-21T19:49:14.213Z,98589.88
2023-05-21T19:54:19.650Z,98594.25
2023-05-21T19:59:23.497Z,98590.38
2023-05-21T20:04:27.058Z,98588.25
2023-05-21T20:09:32.005Z,98597.31
2023-05-21T20:14:35.828Z,98606.63
2023-05-21T20:19:39.366Z,98605.22
2023-05-21T20:24:44.737Z,98594.97
2023-05-21T20:29:50.357Z,98592.34
2023-05-21T20:35:02.677Z,98596.47
2023-05-21T20:40:13.380Z,98590.13
2023-05-21T20:45:18.486Z,98589.09
2023-05-21T20:50:26.017Z,98586.19
2023-05-21T20:55:34.883Z,98589.78
2023-05-21T21:00:45.048Z,98615.94
2023-05-21T21:05:48.945Z,98605.69
2023-05-21T21:10:54.162Z,98615.72
2023-05-21T21:15:57.654Z,98615.44
2023-05-21T21:21:01.614Z,98618.16
2023-05-21T21:26:06.536Z,98613.25
2023-05-21T21:31:10.408Z,98611.53
2023-05-21T21:36:13.895Z,98611.88
2023-05-21T21:41:20.434Z,98611.38
2023-05-21T21:46:24.089Z,98609.97
2023-05-21T21:51:27.704Z,98603.91
2023-05-21T21:56:32.621Z,98600.75
2023-05-21T22:01:36.999Z,98597.63
2023-05-21T22:06:40.593Z,98604.56
2023-05-21T22:11:45.442Z,98605.59
2023-05-21T22:16:49.421Z,98597.94
2023-05-21T22:21:54.152Z,98609.06
2023-05-21T22:26:59.536Z,98610.72
2023-05-21T22:32:03.010Z,98606.91
2023-05-21T22:37:06.523Z,98605.09
2023-05-21T22:42:11.888Z,98606.00
2023-05-21T22:47:16.210Z,98604.00
2023-05-21T22:52:21.798Z,98595.84
2023-05-21T22:57:27.040Z,98593.31
2023-05-21T23:02:30.880Z,98589.09
2023-05-21T23:07:34.658Z,98581.50
2023-05-21T23:12:40.870Z,98578.59
2023-05-21T23:17:44.332Z,98593.06
2023-05-21T23:22:47.898Z,98583.47
2023-05-21T23:27:53.226Z,98585.88
2023-05-21T23:32:57.012Z,98587.22
2023-05-21T23:38:00.507Z,98581.88
2023-05-21T23:43:06.273Z,98581.22
2023-05-21T23:48:09.814Z,98579.72
2023-05-21T23:53:13.570Z,98573.63
2023-05-21T23:58:18.455Z,98568.81
